createdAt,value
2023-04-14T00:01:19.873Z,4.40
2023-04-14T00:08:02.248Z,7.38
2023-04-14T00:14:44.614Z,4.05
2023-04-14T00:21:27.433Z,3.90
2023-04-14T00:28:09.744Z,3.60
2023-04-14T00:34:52.000Z,3.53
2023-04-14T00:41:35.456Z,3.80
2023-04-14T00:48:18.966Z,3.85
2023-04-14T00:55:05.043Z,3.40
2023-04-14T01:01:47.412Z,3.90
2023-04-14T01:08:29.965Z,4.35
2023-04-14T01:15:26.726Z,4.43
2023-04-14T01:22:12.035Z,4.07
2023-04-14T01:29:12.900Z,4.88
2023-04-14T01:35:58.810Z,4.82
2023-04-14T01:42:47.655Z,4.78
2023-04-14T01:49:33.580Z,4.70
2023-04-14T01:56:17.903Z,4.80
2023-04-14T02:03:01.281Z,5.00
2023-04-14T02:09:47.199Z,4.82
2023-04-14T02:16:30.210Z,4.93
2023-04-14T02:23:12.651Z,5.38
2023-04-14T02:29:56.256Z,5.47
2023-04-14T02:36:58.229Z,6.10
2023-04-14T02:44:07.308Z,5.60
2023-04-14T02:50:54.412Z,5.65
2023-04-14T02:57:40.750Z,5.43
2023-04-14T03:04:25.592Z,6.20
2023-04-14T03:11:09.162Z,5.47
2023-04-14T03:17:55.909Z,7.25
2023-04-14T03:33:12.437Z,6.38
2023-04-14T03:40:01.657Z,5.80
2023-04-14T03:46:49.184Z,6.88
2023-04-14T03:53:34.784Z,6.43
2023-04-14T04:00:21.266Z,7.15
2023-04-14T04:07:07.764Z,6.43
2023-04-14T04:13:51.639Z,6.63
2023-04-14T04:20:38.678Z,7.32
2023-04-14T04:27:28.224Z,7.78
2023-04-14T04:34:19.613Z,7.70
2023-04-14T04:41:02.424Z,7.65
2023-04-14T04:47:46.087Z,7.40
2023-04-14T04:54:28.714Z,8.32
2023-04-14T05:01:11.414Z,8.68
2023-04-14T05:07:53.980Z,8.70
2023-04-14T05:14:36.459Z,8.57
2023-04-14T05:21:19.295Z,8.63
2023-04-14T05:28:01.661Z,8.45
2023-04-14T05:34:44.005Z,8.43
2023-04-14T05:41:26.568Z,8.32
2023-04-14T05:48:09.303Z,8.75
2023-04-14T05:54:51.666Z,7.47
2023-04-14T06:01:34.174Z,6.22
2023-04-14T06:08:16.516Z,6.00
2023-04-14T06:14:58.900Z,5.50
2023-04-14T06:21:41.619Z,5.63
2023-04-14T06:28:25.618Z,6.10
2023-04-14T06:35:12.091Z,5.80
2023-04-14T06:41:58.771Z,5.75
2023-04-14T06:48:41.101Z,5.55
2023-04-14T06:55:23.424Z,4.97
2023-04-14T07:02:06.371Z,5.53
2023-04-14T07:08:48.844Z,4.30
2023-04-14T07:15:31.160Z,3.70
2023-04-14T07:22:13.545Z,3.83
2023-04-14T07:28:56.870Z,3.60
2023-04-14T07:35:48.071Z,4.13
2023-04-14T07:42:37.181Z,3.88
2023-04-14T07:49:19.559Z,3.80
2023-04-14T07:56:01.974Z,3.45
2023-04-14T08:02:45.015Z,3.63
2023-04-14T08:09:27.596Z,3.33
2023-04-14T08:16:10.333Z,2.53
2023-04-14T08:22:52.686Z,2.33
2023-04-14T08:29:35.000Z,2.30
2023-04-14T08:36:17.532Z,2.40
2023-04-14T08:42:59.882Z,2.53
2023-04-14T08:49:48.205Z,2.35
2023-04-14T08:56:41.793Z,2.53
2023-04-14T09:03:28.429Z,2.60
2023-04-14T09:10:12.016Z,2.40
2023-04-14T09:16:56.182Z,2.95
2023-04-14T09:23:41.632Z,2.20
2023-04-14T09:30:24.258Z,2.80
2023-04-14T09:37:08.245Z,2.83
2023-04-14T09:43:52.448Z,2.55
2023-04-14T09:51:01.671Z,2.72
2023-04-14T09:57:47.811Z,3.05
2023-04-14T10:04:30.739Z,2.80
2023-04-14T10:11:30.033Z,3.03
2023-04-14T10:18:12.540Z,2.60
2023-04-14T10:24:56.190Z,3.20
2023-04-14T10:31:42.724Z,2.72
2023-04-14T10:38:46.579Z,2.55
2023-04-14T10:45:28.900Z,2.58
2023-04-14T10:52:17.283Z,2.65
2023-04-14T10:58:59.854Z,2.33
2023-04-14T11:05:44.258Z,2.17
2023-04-14T11:12:30.002Z,2.35
2023-04-14T11:19:15.443Z,2.60
2023-04-14T11:25:58.632Z,2.60
2023-04-14T11:32:57.158Z,2.58
2023-04-14T11:39:39.832Z,2.28
2023-04-14T11:46:22.394Z,2.40
2023-04-14T11:53:17.336Z,2.08
2023-04-14T11:59:59.796Z,2.35
2023-04-14T12:06:42.154Z,2.22
2023-04-14T12:13:24.928Z,2.10
2023-04-14T12:20:15.617Z,1.90
2023-04-14T12:26:58.073Z,1.83
2023-04-14T12:33:40.735Z,1.70
2023-04-14T12:40:38.621Z,1.60
2023-04-14T12:47:28.838Z,2.08
2023-04-14T12:54:12.234Z,1.90
2023-04-14T13:00:54.611Z,1.73
2023-04-14T13:07:36.988Z,2.00
2023-04-14T13:14:19.293Z,2.00
2023-04-14T13:21:03.920Z,1.52
2023-04-14T13:27:46.491Z,1.52
2023-04-14T13:34:28.890Z,1.70
2023-04-14T13:41:11.311Z,1.98
2023-04-14T13:47:53.753Z,1.80
2023-04-14T13:54:36.259Z,1.92
2023-04-14T14:01:19.384Z,1.50
2023-04-14T14:08:02.132Z,1.60
2023-04-14T14:14:44.450Z,1.38
2023-04-14T14:21:26.961Z,1.67
2023-04-14T14:28:09.301Z,1.70
2023-04-14T14:34:51.940Z,1.60
2023-04-14T14:41:34.422Z,1.50
2023-04-14T14:48:17.000Z,1.50
2023-04-14T14:54:59.274Z,1.35
2023-04-14T15:01:41.643Z,1.20
2023-04-14T15:08:24.079Z,1.33
2023-04-14T15:15:07.329Z,1.50
2023-04-14T15:21:51.205Z,1.27
2023-04-14T15:28:33.688Z,1.58
2023-04-14T15:35:16.321Z,1.20
2023-04-14T15:41:58.788Z,1.40
2023-04-14T15:48:41.203Z,1.58
2023-04-14T15:55:23.579Z,1.70
2023-04-14T16:02:06.117Z,1.60
2023-04-14T16:08:48.480Z,1.50
2023-04-14T16:15:31.221Z,1.67
2023-04-14T16:22:13.585Z,1.40
2023-04-14T16:28:55.842Z,1.40
2023-04-14T16:35:38.228Z,1.52
2023-04-14T16:42:23.967Z,1.33
2023-04-14T16:49:07.648Z,1.90
2023-04-14T16:55:50.243Z,1.88
2023-04-14T17:02:32.693Z,1.40
2023-04-14T17:09:17.403Z,1.45
2023-04-14T17:16:08.256Z,1.40
2023-04-14T17:22:55.345Z,1.20
2023-04-14T17:29:37.713Z,1.90
2023-04-14T17:36:20.196Z,1.75
2023-04-14T17:43:04.307Z,1.98
2023-04-14T17:49:46.581Z,1.60
2023-04-14T17:56:33.729Z,1.80
2023-04-14T18:03:16.441Z,1.98
2023-04-14T18:09:58.879Z,1.70
2023-04-14T18:16:41.253Z,1.60
2023-04-14T18:23:23.613Z,1.60
2023-04-14T18:30:07.296Z,2.35
2023-04-14T18:36:49.717Z,2.00
2023-04-14T18:43:32.653Z,2.25
2023-04-14T18:50:15.232Z,2.00
2023-04-14T18:56:57.893Z,2.00
2023-04-14T19:03:40.376Z,2.97
2023-04-14T19:10:23.219Z,3.42
2023-04-14T19:17:05.506Z,4.20
2023-04-14T19:23:48.717Z,3.70
2023-04-14T19:30:31.140Z,4.05
2023-04-14T19:37:13.480Z,3.63
2023-04-14T19:43:55.912Z,3.17
2023-04-14T19:50:38.448Z,3.20
2023-04-14T19:57:21.795Z,3.22
2023-04-14T20:04:06.838Z,3.35
2023-04-14T20:10:55.203Z,3.33
2023-04-14T20:17:37.658Z,3.28
2023-04-14T20:24:20.217Z,4.38
2023-04-14T20:31:03.226Z,3.65
2023-04-14T20:37:46.190Z,3.50
2023-04-14T20:44:28.468Z,3.53
2023-04-14T20:51:11.157Z,3.42
2023-04-14T20:57:53.581Z,5.13
2023-04-14T21:04:35.922Z,4.53
2023-04-14T21:11:18.862Z,4.85
2023-04-14T21:18:01.482Z,4.97
2023-04-14T21:24:48.370Z,5.57
2023-04-14T21:31:30.841Z,5.15
2023-04-14T21:38:13.271Z,5.07
2023-04-14T21:44:55.573Z,5.05
2023-04-14T21:51:37.892Z,5.38
2023-04-14T21:58:20.193Z,4.95
2023-04-14T22:05:02.574Z,5.07
2023-04-14T22:11:44.936Z,5.50
2023-04-14T22:18:31.039Z,5.13
2023-04-14T22:25:13.367Z,5.13
2023-04-14T22:31:55.620Z,5.07
2023-04-14T22:38:37.934Z,5.65
2023-04-14T22:45:20.401Z,5.15
2023-04-14T22:52:02.785Z,6.63
2023-04-14T22:58:45.103Z,6.03
2023-04-14T23:05:27.846Z,6.25
2023-04-14T23:12:10.362Z,5.25
2023-04-14T23:18:53.016Z,6.03
2023-04-14T23:25:35.317Z,5.65
2023-04-14T23:32:17.610Z,5.80
2023-04-14T23:39:00.034Z,6.32
2023-04-14T23:45:42.556Z,6.10
2023-04-14T23:52:24.834Z,5.90
2023-04-14T23:59:07.128Z,6.18
